createdAt,value
2022-09-14T08:03:36.443Z,1.67
2022-09-14T08:06:07.988Z,1.63
2022-09-14T08:08:38.219Z,1.40
2022-09-14T08:11:08.446Z,1.40
2022-09-14T08:13:35.736Z,1.50
2022-09-14T08:16:09.951Z,1.48
2022-09-14T08:18:38.485Z,1.20
2022-09-14T08:21:23.793Z,0.90
2022-09-14T08:23:58.594Z,1.30
2022-09-14T08:26:27.328Z,1.38
2022-09-14T08:28:55.764Z,1.88
2022-09-14T08:31:27.186Z,1.52
2022-09-14T08:33:58.172Z,1.60
2022-09-14T08:36:27.811Z,1.45
2022-09-14T08:38:55.297Z,1.70
2022-09-14T08:41:29.739Z,1.88
2022-09-14T08:44:14.357Z,2.15
2022-09-14T08:47:03.234Z,1.90
2022-09-14T08:49:44.378Z,1.30
2022-09-14T08:52:25.613Z,1.90
2022-09-14T08:54:58.571Z,2.55
2022-09-14T08:57:40.674Z,2.70
2022-09-14T09:00:24.923Z,2.00
2022-09-14T09:03:29.637Z,2.00
2022-09-14T09:06:15.744Z,2.13
2022-09-14T09:09:02.304Z,2.00
2022-09-14T09:11:37.886Z,2.08
2022-09-14T09:14:19.336Z,1.87
2022-09-14T09:16:50.356Z,2.42
2022-09-14T09:19:32.961Z,2.00
2022-09-14T09:22:15.878Z,1.85
2022-09-14T09:24:47.724Z,1.60
2022-09-14T09:27:28.274Z,1.50
2022-09-14T09:29:55.870Z,1.38
2022-09-14T09:32:27.413Z,1.50
2022-09-14T09:35:24.727Z,1.10
2022-09-14T09:37:58.477Z,1.70
2022-09-14T09:40:36.243Z,1.10
2022-09-14T09:43:04.283Z,1.33
2022-09-14T09:45:50.916Z,1.00
2022-09-14T09:48:22.300Z,1.25
2022-09-14T09:51:04.758Z,1.15
2022-09-14T09:53:34.390Z,1.00
2022-09-14T09:56:02.000Z,1.20
2022-09-14T09:58:38.290Z,1.08
2022-09-14T10:01:17.475Z,1.25
2022-09-14T10:04:00.463Z,1.80
2022-09-14T10:06:27.701Z,1.13
2022-09-14T10:08:57.481Z,1.20
2022-09-14T10:11:37.688Z,0.90
2022-09-14T10:14:18.688Z,0.80
2022-09-14T10:16:46.151Z,1.20
2022-09-14T10:19:22.576Z,0.93
2022-09-14T10:22:31.254Z,1.25
2022-09-14T10:25:20.251Z,1.60
2022-09-14T10:27:56.680Z,1.30
2022-09-14T10:30:34.562Z,1.27
2022-09-14T10:33:15.139Z,0.70
2022-09-14T10:35:47.405Z,1.13
2022-09-14T10:38:36.655Z,1.25
2022-09-14T10:41:21.944Z,1.13
2022-09-14T10:44:11.583Z,1.15
2022-09-14T10:46:48.462Z,1.20
2022-09-14T10:52:22.000Z,1.17
2022-09-14T10:55:32.137Z,1.10
2022-09-14T10:58:25.791Z,1.13
2022-09-14T11:01:29.471Z,0.90
2022-09-14T11:04:28.909Z,1.13
2022-09-14T11:07:32.824Z,1.17
2022-09-14T11:09:59.991Z,0.98
2022-09-14T11:12:55.616Z,1.10
2022-09-14T11:15:41.332Z,1.10
2022-09-14T11:18:27.037Z,0.98
2022-09-14T11:21:03.918Z,1.05
2022-09-14T11:24:02.213Z,1.00
2022-09-14T11:26:42.493Z,1.15
2022-09-14T11:29:18.959Z,0.67
2022-09-14T11:32:20.505Z,0.70
2022-09-14T11:34:56.125Z,0.80
2022-09-14T11:41:47.526Z,0.98
2022-09-14T11:44:22.085Z,1.10
2022-09-14T11:47:00.776Z,0.80
2022-09-14T11:49:46.387Z,0.80
2022-09-14T11:52:28.192Z,1.00
2022-09-14T11:54:56.366Z,1.13
2022-09-14T11:57:26.682Z,0.97
2022-09-14T12:00:24.445Z,1.20
2022-09-14T12:03:18.652Z,1.17
2022-09-14T12:05:47.746Z,1.40
2022-09-14T12:08:24.176Z,1.27
2022-09-14T12:11:09.589Z,1.03
2022-09-14T12:13:37.918Z,0.98
2022-09-14T12:16:09.647Z,1.10
2022-09-14T12:18:38.982Z,1.00
2022-09-14T12:21:08.280Z,1.05
2022-09-14T12:27:54.442Z,1.30
2022-09-14T12:30:40.996Z,0.90
2022-09-14T12:33:34.027Z,0.98
2022-09-14T12:36:04.339Z,1.15
2022-09-14T12:39:04.174Z,1.30
2022-09-14T12:41:37.140Z,1.05
2022-09-14T12:44:04.979Z,1.20
2022-09-14T12:46:38.676Z,1.05
2022-09-14T12:49:29.641Z,1.00
2022-09-14T12:52:03.539Z,1.13
2022-09-14T12:54:41.477Z,1.17
2022-09-14T12:57:28.265Z,1.70
2022-09-14T13:00:13.517Z,1.58
2022-09-14T13:02:47.632Z,1.20
2022-09-14T13:05:18.098Z,1.20
2022-09-14T13:07:46.014Z,1.02
2022-09-14T13:10:24.594Z,1.30
2022-09-14T13:12:52.147Z,1.10
2022-09-14T13:15:23.193Z,1.20
2022-09-14T13:18:03.564Z,1.17
2022-09-14T13:20:33.416Z,1.40
2022-09-14T13:23:01.287Z,1.40
2022-09-14T13:25:38.049Z,1.27
2022-09-14T13:28:11.445Z,1.30
2022-09-14T13:30:39.071Z,1.30
2022-09-14T13:33:06.186Z,1.20
2022-09-14T13:35:39.634Z,1.30
2022-09-14T13:38:29.616Z,1.10
2022-09-14T13:41:09.371Z,1.40
2022-09-14T13:43:37.144Z,1.60
2022-09-14T13:46:07.577Z,2.00
2022-09-14T13:48:40.139Z,1.15
2022-09-14T13:51:08.767Z,1.20
2022-09-14T13:53:37.928Z,0.95
2022-09-14T13:56:17.374Z,0.90
2022-09-14T13:58:45.675Z,1.25
2022-09-14T14:01:25.444Z,0.90
2022-09-14T14:03:55.398Z,0.60
2022-09-14T14:06:25.443Z,0.90
2022-09-14T14:09:06.693Z,0.90
2022-09-14T14:11:35.664Z,0.90
2022-09-14T14:14:30.151Z,0.80
2022-09-14T14:17:30.328Z,1.00
2022-09-14T14:20:00.300Z,1.20
2022-09-14T14:22:35.603Z,0.80
2022-09-14T14:25:19.082Z,0.65
2022-09-14T14:27:47.921Z,0.70
2022-09-14T14:30:21.339Z,0.80
2022-09-14T14:32:53.667Z,0.95
2022-09-14T14:35:24.381Z,0.80
2022-09-14T14:37:51.808Z,0.93
2022-09-14T14:40:19.843Z,0.93
2022-09-14T14:42:49.171Z,0.90
2022-09-14T14:45:19.520Z,1.00
2022-09-14T14:47:48.080Z,0.90
2022-09-14T14:50:17.040Z,0.95
2022-09-14T14:52:44.243Z,0.93
2022-09-14T14:55:11.375Z,0.70
2022-09-14T14:57:38.989Z,1.13
2022-09-14T15:00:13.175Z,0.80
2022-09-14T15:02:40.278Z,1.00
2022-09-14T15:05:07.662Z,1.23
2022-09-14T15:07:37.718Z,1.00
2022-09-14T15:10:06.843Z,0.95
2022-09-14T15:12:36.563Z,1.00
2022-09-14T15:15:03.922Z,1.40
2022-09-14T15:17:31.014Z,1.10
2022-09-14T15:19:58.020Z,0.88
2022-09-14T15:22:25.315Z,1.00
2022-09-14T15:24:52.404Z,0.83
2022-09-14T15:27:19.489Z,0.88
2022-09-14T15:29:46.568Z,1.10
2022-09-14T15:32:13.720Z,1.02
2022-09-14T15:34:41.324Z,1.02
2022-09-14T15:37:09.286Z,0.97
2022-09-14T15:39:36.778Z,0.80
2022-09-14T15:42:04.439Z,0.80
2022-09-14T15:44:32.996Z,0.90
2022-09-14T15:47:00.174Z,1.20
2022-09-14T15:49:27.602Z,1.93
2022-09-14T15:51:56.309Z,1.05
2022-09-14T15:54:25.313Z,0.98
2022-09-14T15:56:55.310Z,0.60
2022-09-14T15:59:23.185Z,1.08
2022-09-14T16:01:50.663Z,1.17
2022-09-14T16:04:18.757Z,1.17
2022-09-14T16:06:46.620Z,1.02
2022-09-14T16:09:15.521Z,0.77
2022-09-14T16:11:44.039Z,0.90
2022-09-14T16:14:11.594Z,0.90
2022-09-14T16:16:39.481Z,1.20
2022-09-14T16:19:12.851Z,1.00
2022-09-14T16:21:41.436Z,0.93
2022-09-14T16:24:12.716Z,1.10
2022-09-14T16:26:40.623Z,0.73
2022-09-14T16:29:11.574Z,0.98
2022-09-14T16:31:41.220Z,0.88
2022-09-14T16:34:14.632Z,0.60
2022-09-14T16:36:43.074Z,0.60
2022-09-14T16:39:16.343Z,0.63
2022-09-14T16:41:44.082Z,1.08
2022-09-14T16:44:15.073Z,0.70
2022-09-14T16:46:42.495Z,0.88
2022-09-14T16:49:09.768Z,0.65
2022-09-14T16:51:36.913Z,0.70
2022-09-14T16:54:04.499Z,0.65
2022-09-14T16:56:35.987Z,0.70
2022-09-14T16:59:04.711Z,0.90
2022-09-14T17:01:43.361Z,0.77
2022-09-14T17:04:15.979Z,0.70
2022-09-14T17:06:44.736Z,0.70
2022-09-14T17:09:15.562Z,0.77
2022-09-14T17:11:43.108Z,0.80
2022-09-14T17:14:14.727Z,1.08
2022-09-14T17:16:42.157Z,0.80
2022-09-14T17:19:10.215Z,0.70
2022-09-14T17:21:40.659Z,0.70
2022-09-14T17:24:08.458Z,0.70
2022-09-14T17:26:38.627Z,1.00
2022-09-14T17:29:07.012Z,0.90
2022-09-14T17:31:40.773Z,0.98
2022-09-14T17:34:10.339Z,0.70
2022-09-14T17:36:38.237Z,0.88
2022-09-14T17:39:11.772Z,0.77
2022-09-14T17:41:40.646Z,0.70
2022-09-14T17:44:10.978Z,0.60
2022-09-14T17:46:46.044Z,0.90
2022-09-14T17:49:18.509Z,0.75
2022-09-14T17:51:45.744Z,0.60
2022-09-14T17:54:13.174Z,0.60
2022-09-14T17:56:40.677Z,0.70
2022-09-14T17:59:11.883Z,0.95
2022-09-14T18:01:39.790Z,0.65
2022-09-14T18:04:12.024Z,0.65
2022-09-14T18:06:42.264Z,0.60
2022-09-14T18:09:15.380Z,0.70
2022-09-14T18:11:43.227Z,0.70
2022-09-14T18:14:12.887Z,0.85
2022-09-14T18:16:41.066Z,0.70
2022-09-14T18:19:08.439Z,0.63
2022-09-14T18:21:35.784Z,0.80
2022-09-14T18:24:03.369Z,0.60
2022-09-14T18:26:30.555Z,0.60
2022-09-14T18:28:58.661Z,0.90
2022-09-14T18:31:27.120Z,0.80
2022-09-14T18:33:59.117Z,0.77
2022-09-14T18:36:29.532Z,1.08
2022-09-14T18:38:58.412Z,1.05
2022-09-14T18:41:28.941Z,0.60
2022-09-14T18:44:00.829Z,0.70
2022-09-14T18:46:28.817Z,0.52
2022-09-14T18:48:58.479Z,0.60
2022-09-14T18:51:27.186Z,1.10
2022-09-14T18:54:03.657Z,1.02
2022-09-14T18:56:34.575Z,0.80
2022-09-14T18:59:03.416Z,0.65
2022-09-14T19:01:33.108Z,0.73
2022-09-14T19:04:02.281Z,0.90
2022-09-14T19:06:29.325Z,1.08
2022-09-14T19:08:56.403Z,1.20
2022-09-14T19:11:27.058Z,0.70
2022-09-14T19:14:09.307Z,0.50
2022-09-14T19:16:41.064Z,0.80
2022-09-14T19:19:10.704Z,0.60
2022-09-14T19:21:40.293Z,0.70
2022-09-14T19:24:13.512Z,0.70
2022-09-14T19:26:50.840Z,0.73
2022-09-14T19:29:23.359Z,0.50
2022-09-14T19:31:52.205Z,0.55
2022-09-14T19:34:20.627Z,0.63
2022-09-14T19:36:47.919Z,0.95
2022-09-14T19:39:15.324Z,0.68
2022-09-14T19:41:42.519Z,0.75
2022-09-14T19:44:13.649Z,1.02
2022-09-14T19:46:40.809Z,0.73
2022-09-14T19:49:14.767Z,0.50
2022-09-14T19:51:42.297Z,0.60
2022-09-14T19:54:09.779Z,0.70
2022-09-14T19:56:37.259Z,0.90
2022-09-14T19:59:07.168Z,0.93
2022-09-14T20:01:36.872Z,0.80
2022-09-14T20:04:05.615Z,0.75
2022-09-14T20:06:40.265Z,0.85
2022-09-14T20:09:15.898Z,0.80
2022-09-14T20:11:45.225Z,0.90
2022-09-14T20:14:15.089Z,0.70
2022-09-14T20:16:50.953Z,0.90
2022-09-14T20:19:23.124Z,0.82
2022-09-14T20:21:51.756Z,0.88
2022-09-14T20:24:25.392Z,0.80
2022-09-14T20:26:55.251Z,0.90
2022-09-14T20:29:23.879Z,0.80
2022-09-14T20:31:51.292Z,0.70
2022-09-14T20:34:20.526Z,1.00
2022-09-14T20:36:49.153Z,0.70
2022-09-14T20:39:16.625Z,1.30
2022-09-14T20:41:44.032Z,0.80
2022-09-14T20:44:11.978Z,1.25
2022-09-14T20:46:41.647Z,0.68
2022-09-14T20:49:14.642Z,1.03
2022-09-14T20:51:42.865Z,0.90
2022-09-14T20:54:13.872Z,0.70
2022-09-14T20:56:41.604Z,0.85
2022-09-14T20:59:12.924Z,0.90
2022-09-14T21:01:42.031Z,1.00
2022-09-14T21:04:14.679Z,0.70
2022-09-14T21:06:44.837Z,0.60
2022-09-14T21:09:13.139Z,1.05
2022-09-14T21:11:41.164Z,0.80
2022-09-14T21:14:08.746Z,0.70
2022-09-14T21:16:42.445Z,0.77
2022-09-14T21:19:15.757Z,0.70
2022-09-14T21:21:43.312Z,0.90
2022-09-14T21:24:13.424Z,0.93
2022-09-14T21:26:42.834Z,1.10
2022-09-14T21:29:17.503Z,0.65
2022-09-14T21:31:44.854Z,0.77
2022-09-14T21:34:12.528Z,0.70
2022-09-14T21:36:42.653Z,0.73
2022-09-14T21:39:15.859Z,0.60
2022-09-14T21:41:44.852Z,0.50
2022-09-14T21:44:13.428Z,0.60
2022-09-14T21:46:41.381Z,0.50
2022-09-14T21:49:14.054Z,0.60
2022-09-14T21:51:41.613Z,0.80
2022-09-14T21:54:10.670Z,0.50
2022-09-14T21:56:40.056Z,0.90
2022-09-14T21:59:10.120Z,0.60
2022-09-14T22:01:37.917Z,0.68
2022-09-14T22:04:09.460Z,0.60
2022-09-14T22:06:36.554Z,0.73
2022-09-14T22:09:03.866Z,0.50
2022-09-14T22:11:34.707Z,0.40
2022-09-14T22:14:04.815Z,0.45
2022-09-14T22:16:35.040Z,0.50
2022-09-14T22:19:05.435Z,0.60
2022-09-14T22:21:35.703Z,0.52
2022-09-14T22:24:05.083Z,0.60
2022-09-14T22:26:36.133Z,0.55
2022-09-14T22:29:04.437Z,0.50
2022-09-14T22:31:32.603Z,0.55
2022-09-14T22:33:59.767Z,0.63
2022-09-14T22:36:27.631Z,0.70
2022-09-14T22:38:56.829Z,0.80
2022-09-14T22:41:26.033Z,0.60
2022-09-14T22:43:54.009Z,0.50
2022-09-14T22:46:22.334Z,0.68
2022-09-14T22:48:50.652Z,0.65
2022-09-14T22:51:20.893Z,0.60
2022-09-14T22:53:48.022Z,0.50
2022-09-14T22:56:41.517Z,0.70
2022-09-14T22:59:10.475Z,0.73
2022-09-14T23:01:40.034Z,0.50
2022-09-14T23:04:10.043Z,0.82
2022-09-14T23:06:42.673Z,0.50
2022-09-14T23:09:12.975Z,0.68
2022-09-14T23:11:40.080Z,0.60
2022-09-14T23:14:07.158Z,0.50
2022-09-14T23:16:34.221Z,0.50
2022-09-14T23:19:04.130Z,0.50
2022-09-14T23:21:31.548Z,0.40
2022-09-14T23:24:02.117Z,0.68
2022-09-14T23:26:30.014Z,0.50
2022-09-14T23:29:02.570Z,0.80
2022-09-14T23:31:31.232Z,0.60
2022-09-14T23:34:00.599Z,0.70
2022-09-14T23:36:28.440Z,0.60
2022-09-14T23:38:55.699Z,0.70
2022-09-14T23:41:25.650Z,0.60
2022-09-14T23:43:52.979Z,0.50
2022-09-14T23:46:20.960Z,0.47
2022-09-14T23:48:49.378Z,0.60
2022-09-14T23:51:16.799Z,0.50
2022-09-14T23:53:43.947Z,0.70
2022-09-14T23:56:11.727Z,0.70
2022-09-14T23:58:40.867Z,0.50
